Airfield :
LOGIN :

Register | Disclaimer

   EN    FR    IT 

 










Legend :    VFR   Marginal VFR   IFR   Intensive IFR   Very Intensive IFR
Visi :
Ceiling :
>= 8 km
>= 3000ft
5 to 8 km
1000 to 3000 ft
1500m to 5 km
500 to 1000 ft
800 to 1500m
200 to 500 ft
< 800m
< 200 ft
Symbols :   Thunderstorms  Fog  Heavy snow  Heavy precipitations  Wind > 20 kt
SIGMETs :     Misc.  Thunderstorms  Icing  Turbulence  Mountain Waves  Volcanic Ashes






- Airport Elevation : 427 ft
- IATA code : KBP


UKBB - Boryspil'

CURRENT METAR :
  • 231030Z 27009MPS 9999 FEW030 09/02 Q1008 R18L/CLRD// R18R/290050 TEMPO 28012G17MPS

EXPIRED METARs :
  • 231006Z 27008G13MPS 9999 SCT030 08/02 Q1008 R18L/CLRD// R18R/290050 TEMPO 28012G17MPS
  • 231000Z 26008MPS 9999 SCT030 08/02 Q1008 R18L/CLRD// R18R/290050 TEMPO 28012G17MPS
  • 230930Z 25008MPS CAVOK 07/02 Q1009 R88/290050 TEMPO 28012G17MPS
  • 230900Z 25008G13MPS CAVOK 07/02 Q1009 R88/290050 TEMPO 28012G17MPS
  • 230830Z 25007G12MPS CAVOK 06/02 Q1009 R88/290050 TEMPO 28012G17MPS
  • 230800Z 25006MPS CAVOK 06/02 Q1010 R88/290050 TEMPO 28012G17MPS

TAF TAF UKBB
Valid from the 23 at 06:00 until the 24 at 06:00 UTC


230507Z 2306/2406 26009G14MPS 9999 BKN008 TX05/2312Z TN00/2405Z
TEMPO 2306/2308 3000 -SHRA SCT004 BKN015CB
TEMPO 2308/2320 28012G17MPS 2100 -SHRA BKN005 BKN015CB
BECMG 2320/2322 22007G12MPS
TEMPO 2322/2406 24009G14MPS 1600 -SHRASN BR BKN004 BKN012CB



MET'MAP, your aeronautical weather chart ! - Copyright ORBIFLY December 2007 - Disclaimer

ORBIFLY MET'MAP TEAM :

Programming & Development : Alexandra Zaïnal
Concept & original design : Baudouin d'Aumeries
Assistance for programming : Marc-Olivier Méhu
Technical & hardware support : Manuel Goepfert

Contact : metmap@orbifly.com




SOURCES & CREDITS :

   NOAA